Zim Rio Grande — 9HNV9 — position and weather

sailwx.info

Track history (hours):
 
Tides and Currents Weather Stations Pressure Air Temp Water Temp Dewpoint Dewpoint Depression Visibility Wind Speed Wind Dir Waves Ship Positions

Zim Rio Grande

Last reported at 2015-Apr-20 05:06 UTC. Time now 2015-Apr-21 03:02 UTC.
Position N 35°42' E 025°54'.

Length 260 m; draft 11.4 m.

Type: Ship (hazmat cat A). MMSI: 249253000.

Date/timePositionNaut miles runAvg speedWind from/ knotsBaromVisibWave heightAir tempDewpointWater temp
2015-Apr-20 05:06N 35°42' E 025°54'812.5
2015-Apr-20 04:29N 35°46' E 025°46'1213.1
2015-Apr-20 03:32N 35°53' E 025°34'1312.8
2015-Apr-20 02:33N 35°60' E 025°21'1212.6
2015-Apr-20 01:33N 36°07' E 025°08'1312.7
2015-Apr-20 00:32N 36°14' E 024°55'9712.0
2015-Apr-19 16:29N 37°34' E 023°46'1212.6
2015-Apr-19 15:33N 37°44' E 023°39'1211.8
2015-Apr-19 14:33N 37°56' E 023°37'2 1.3
2015-Apr-19 13:24N 37°57' E 023°35'0 0.0
2015-Apr-19 11:18N 37°57' E 023°35'0 0.0
2015-Apr-19 10:27N 37°57' E 023°35'0 0.0
2015-Apr-19 09:18N 37°57' E 023°35'0 0.0
2015-Apr-19 08:27N 37°57' E 023°35'0 0.0
2015-Apr-19 07:27N 37°57' E 023°35'0 0.0
2015-Apr-19 06:24N 37°57' E 023°35'0 0.0
2015-Apr-19 05:12N 37°57' E 023°35'0 0.0
2015-Apr-19 04:09N 37°57' E 023°35'0 0.0
2015-Apr-19 02:27N 37°57' E 023°35'0 0.0
2015-Apr-19 01:33N 37°57' E 023°35'0 0.0
2015-Apr-19 00:24N 37°57' E 023°35'0 0.0
2015-Apr-18 23:33N 37°57' E 023°35'0 0.0
2015-Apr-18 22:33N 37°57' E 023°35'0 0.0
2015-Apr-18 21:33N 37°57' E 023°35'0 0.0
2015-Apr-18 20:33N 37°57' E 023°35'0 0.0
2015-Apr-18 19:30N 37°57' E 023°35'0 0.0
2015-Apr-18 18:33N 37°57' E 023°35'0 0.0
2015-Apr-18 17:33N 37°57' E 023°35'0 0.0
2015-Apr-18 16:33N 37°57' E 023°35'3 2.6
2015-Apr-18 15:33N 37°55' E 023°36'3 2.9
2015-Apr-18 14:33N 37°52' E 023°34'1 1.0
2015-Apr-18 13:34N 37°53' E 023°33'1 0.5
2015-Apr-18 12:34N 37°53' E 023°34'1 0.6
2015-Apr-18 11:34N 37°53' E 023°35'1 0.8
2015-Apr-18 10:34N 37°53' E 023°35'0 0.4
2015-Apr-18 09:34N 37°52' E 023°35'0 0.2
2015-Apr-18 08:34N 37°52' E 023°35'0 0.1
2015-Apr-18 07:34N 37°52' E 023°35'0 0.1
2015-Apr-18 06:33N 37°52' E 023°35'2 1.7
2015-Apr-18 05:33N 37°51' E 023°37'1110.8
2015-Apr-18 04:33N 37°42' E 023°44'1211.8
2015-Apr-18 03:33N 37°34' E 023°55'4410.8
2015-Apr-17 23:28N 37°17' E 024°46'1011.0
2015-Apr-17 22:34N 37°16' E 024°59'1111.2
2015-Apr-17 21:33N 37°16' E 025°13'1111.0
2015-Apr-17 20:33N 37°15' E 025°27'1211.6
2015-Apr-17 19:33N 37°14' E 025°41'1211.7
2015-Apr-17 18:32N 37°09' E 025°55'1611.6
2015-Apr-17 17:11N 37°00' E 026°11'7212.1
2015-Apr-17 11:11N 36°08' E 027°14'812.4
2015-Apr-17 10:31N 36°03' E 027°21'23713.1
2015-Apr-16 16:27N 33°43' E 031°15'1213.3
2015-Apr-16 15:33N 33°36' E 031°27'1313.2
2015-Apr-16 14:34N 33°29' E 031°40'1313.2
2015-Apr-16 13:34N 33°21' E 031°53'1313.2
2015-Apr-16 12:33N 33°13' E 032°06'  
Track history (hours):
 
Tides and Currents Weather Stations Pressure Air Temp Water Temp Dewpoint Dewpoint Depression Visibility Wind Speed Wind Dir Waves Ship Positions

Zim Rio Grande

Last reported at 2015-Apr-20 05:06 UTC. Time now 2015-Apr-21 03:02 UTC.
Position N 35°42' E 025°54'.

Length 260 m; draft 11.4 m.

Type: Ship (hazmat cat A). MMSI: 249253000.

Date/timePositionNaut miles runAvg speedWind from/ knotsBaromVisibWave heightAir tempDewpointWater temp
2015-Apr-20 05:06N 35°42' E 025°54'812.5
2015-Apr-20 04:29N 35°46' E 025°46'1213.1
2015-Apr-20 03:32N 35°53' E 025°34'1312.8
2015-Apr-20 02:33N 35°60' E 025°21'1212.6
2015-Apr-20 01:33N 36°07' E 025°08'1312.7
2015-Apr-20 00:32N 36°14' E 024°55'9712.0
2015-Apr-19 16:29N 37°34' E 023°46'1212.6
2015-Apr-19 15:33N 37°44' E 023°39'1211.8
2015-Apr-19 14:33N 37°56' E 023°37'2 1.3
2015-Apr-19 13:24N 37°57' E 023°35'0 0.0
2015-Apr-19 11:18N 37°57' E 023°35'0 0.0
2015-Apr-19 10:27N 37°57' E 023°35'0 0.0
2015-Apr-19 09:18N 37°57' E 023°35'0 0.0
2015-Apr-19 08:27N 37°57' E 023°35'0 0.0
2015-Apr-19 07:27N 37°57' E 023°35'0 0.0
2015-Apr-19 06:24N 37°57' E 023°35'0 0.0
2015-Apr-19 05:12N 37°57' E 023°35'0 0.0
2015-Apr-19 04:09N 37°57' E 023°35'0 0.0
2015-Apr-19 02:27N 37°57' E 023°35'0 0.0
2015-Apr-19 01:33N 37°57' E 023°35'0 0.0
2015-Apr-19 00:24N 37°57' E 023°35'0 0.0
2015-Apr-18 23:33N 37°57' E 023°35'0 0.0
2015-Apr-18 22:33N 37°57' E 023°35'0 0.0
2015-Apr-18 21:33N 37°57' E 023°35'0 0.0
2015-Apr-18 20:33N 37°57' E 023°35'0 0.0
2015-Apr-18 19:30N 37°57' E 023°35'0 0.0
2015-Apr-18 18:33N 37°57' E 023°35'0 0.0
2015-Apr-18 17:33N 37°57' E 023°35'0 0.0
2015-Apr-18 16:33N 37°57' E 023°35'3 2.6
2015-Apr-18 15:33N 37°55' E 023°36'3 2.9
2015-Apr-18 14:33N 37°52' E 023°34'1 1.0
2015-Apr-18 13:34N 37°53' E 023°33'1 0.5
2015-Apr-18 12:34N 37°53' E 023°34'1 0.6
2015-Apr-18 11:34N 37°53' E 023°35'1 0.8
2015-Apr-18 10:34N 37°53' E 023°35'0 0.4
2015-Apr-18 09:34N 37°52' E 023°35'0 0.2
2015-Apr-18 08:34N 37°52' E 023°35'0 0.1
2015-Apr-18 07:34N 37°52' E 023°35'0 0.1
2015-Apr-18 06:33N 37°52' E 023°35'2 1.7
2015-Apr-18 05:33N 37°51' E 023°37'1110.8
2015-Apr-18 04:33N 37°42' E 023°44'1211.8
2015-Apr-18 03:33N 37°34' E 023°55'4410.8
2015-Apr-17 23:28N 37°17' E 024°46'1011.0
2015-Apr-17 22:34N 37°16' E 024°59'1111.2
2015-Apr-17 21:33N 37°16' E 025°13'1111.0
2015-Apr-17 20:33N 37°15' E 025°27'1211.6
2015-Apr-17 19:33N 37°14' E 025°41'1211.7
2015-Apr-17 18:32N 37°09' E 025°55'1611.6
2015-Apr-17 17:11N 37°00' E 026°11'7212.1
2015-Apr-17 11:11N 36°08' E 027°14'812.4
2015-Apr-17 10:31N 36°03' E 027°21'23713.1
2015-Apr-16 16:27N 33°43' E 031°15'1213.3
2015-Apr-16 15:33N 33°36' E 031°27'1313.2
2015-Apr-16 14:34N 33°29' E 031°40'1313.2
2015-Apr-16 13:34N 33°21' E 031°53'1313.2
2015-Apr-16 12:33N 33°13' E 032°06'  

Dump ship's entire track history